createdAt,value
2019-06-07T00:01:08.466Z,3.10
2019-06-07T00:03:37.469Z,3.83
2019-06-07T00:06:07.098Z,3.50
2019-06-07T00:08:37.351Z,3.27
2019-06-07T00:11:07.656Z,3.33
2019-06-07T00:13:37.266Z,2.37
2019-06-07T00:16:06.320Z,3.42
2019-06-07T00:18:35.386Z,6.33
2019-06-07T00:21:04.497Z,3.33
2019-06-07T00:23:33.543Z,2.50
2019-06-07T00:26:02.542Z,3.85
2019-06-07T00:28:31.602Z,3.15
2019-06-07T00:31:00.863Z,4.00
2019-06-07T00:33:30.020Z,3.77
2019-06-07T00:35:58.994Z,3.83
2019-06-07T00:38:27.998Z,3.15
2019-06-07T00:40:57.002Z,4.58
2019-06-07T00:43:28.584Z,6.83
2019-06-07T00:45:56.837Z,2.67
2019-06-07T00:48:32.080Z,3.27
2019-06-07T00:50:56.623Z,3.92
2019-06-07T00:53:31.793Z,2.52
2019-06-07T00:55:56.481Z,5.78
2019-06-07T00:58:27.901Z,3.83
2019-06-07T01:00:56.312Z,5.78
2019-06-07T01:03:26.039Z,3.00
2019-06-07T01:05:55.151Z,3.58
2019-06-07T01:08:28.271Z,3.50
2019-06-07T01:10:54.990Z,3.75
2019-06-07T01:13:26.641Z,4.28
2019-06-07T01:15:56.446Z,4.70
2019-06-07T01:18:37.307Z,5.75
2019-06-07T01:20:56.342Z,3.05
2019-06-07T01:24:01.396Z,5.30
2019-06-07T01:25:56.167Z,4.70
2019-06-07T01:28:27.069Z,4.60
2019-06-07T01:30:56.142Z,5.53
2019-06-07T01:33:39.178Z,5.28
2019-06-07T01:35:56.171Z,5.83
2019-06-07T01:38:26.873Z,3.83
2019-06-07T01:40:55.973Z,4.50
2019-06-07T01:43:28.424Z,4.92
2019-06-07T01:45:55.771Z,4.87
2019-06-07T01:48:29.540Z,5.55
2019-06-07T01:50:55.583Z,5.10
2019-06-07T01:53:26.437Z,3.60
2019-06-07T01:55:55.656Z,4.78
2019-06-07T01:58:27.338Z,4.70
2019-06-07T02:00:55.413Z,5.50
2019-06-07T02:03:26.936Z,6.10
2019-06-07T02:05:55.311Z,6.53
2019-06-07T02:08:26.523Z,4.35
2019-06-07T02:10:55.126Z,4.55
2019-06-07T02:13:27.860Z,3.80
2019-06-07T02:15:55.274Z,5.85
2019-06-07T02:18:27.764Z,6.15
2019-06-07T02:20:55.199Z,7.55
2019-06-07T02:23:29.214Z,4.53
2019-06-07T02:25:55.183Z,6.75
2019-06-07T02:28:42.166Z,6.12
2019-06-07T02:30:59.910Z,5.53
2019-06-07T02:33:28.955Z,5.78
2019-06-07T02:35:56.500Z,5.30
2019-06-07T02:38:29.683Z,5.00
2019-06-07T02:40:56.556Z,5.28
2019-06-07T02:43:28.261Z,4.87
2019-06-07T02:45:56.498Z,5.08
2019-06-07T02:48:27.907Z,7.97
2019-06-07T02:50:56.368Z,7.75
2019-06-07T02:53:27.057Z,8.83
2019-06-07T02:56:35.274Z,10.28
2019-06-07T02:58:31.114Z,4.70
2019-06-07T03:01:07.452Z,13.25
2019-06-07T03:03:30.426Z,6.60
2019-06-07T03:06:00.816Z,9.38
2019-06-07T03:08:35.459Z,8.50
2019-06-07T03:11:02.815Z,7.80
2019-06-07T03:13:37.423Z,8.25
2019-06-07T03:16:08.623Z,8.28
2019-06-07T03:19:13.966Z,14.98
2019-06-07T03:21:44.190Z,9.20
2019-06-07T03:24:13.307Z,10.08
2019-06-07T03:29:13.071Z,12.13
2019-06-07T03:31:47.728Z,9.35
2019-06-07T03:34:12.925Z,11.10
2019-06-07T03:36:41.955Z,10.78
2019-06-07T03:39:11.033Z,9.03
2019-06-07T03:41:49.834Z,7.08
2019-06-07T03:44:10.705Z,9.95
2019-06-07T03:46:41.592Z,12.43
2019-06-07T03:49:10.568Z,10.95
2019-06-07T03:51:40.914Z,9.83
2019-06-07T03:54:10.192Z,9.70
2019-06-07T03:56:41.067Z,12.78
2019-06-07T03:59:10.082Z,12.73
2019-06-07T04:01:41.165Z,9.53
2019-06-07T04:04:09.814Z,11.97
2019-06-07T04:06:41.954Z,14.43
2019-06-07T04:09:09.596Z,12.30
2019-06-07T04:11:39.451Z,10.40
2019-06-07T04:14:09.468Z,11.53
2019-06-07T04:16:44.151Z,10.23
2019-06-07T04:19:09.466Z,15.57
2019-06-07T04:21:42.466Z,9.03
2019-06-07T04:24:09.302Z,14.70
2019-06-07T04:26:43.274Z,16.60
2019-06-07T04:29:32.201Z,11.80
2019-06-07T04:31:42.695Z,15.48
2019-06-07T04:34:10.540Z,11.10
2019-06-07T04:36:55.093Z,10.68
2019-06-07T04:39:10.504Z,10.48
2019-06-07T04:41:41.123Z,9.55
2019-06-07T04:44:11.691Z,12.53
2019-06-07T04:46:43.031Z,10.23
2019-06-07T04:49:14.704Z,11.55
2019-06-07T04:51:45.055Z,12.70
2019-06-07T04:54:14.152Z,13.53
2019-06-07T04:56:44.720Z,10.48
2019-06-07T05:00:00.397Z,11.88
2019-06-07T05:01:44.590Z,14.85
2019-06-07T05:04:13.866Z,12.82
2019-06-07T05:06:42.925Z,14.45
2019-06-07T05:09:12.246Z,13.68
2019-06-07T05:11:44.749Z,13.30
2019-06-07T05:14:12.002Z,11.68
2019-06-07T05:16:44.067Z,10.68
2019-06-07T05:19:11.900Z,16.50
2019-06-07T05:21:59.862Z,11.33
2019-06-07T05:24:11.814Z,10.73
2019-06-07T05:26:42.809Z,10.80
2019-06-07T05:29:11.594Z,10.82
2019-06-07T05:31:45.239Z,12.43
2019-06-07T05:34:12.971Z,11.75
2019-06-07T05:36:44.885Z,13.53
2019-06-07T05:39:12.808Z,12.63
2019-06-07T05:41:44.189Z,11.10
2019-06-07T05:44:14.916Z,11.25
2019-06-07T05:46:47.225Z,12.65
2019-06-07T05:49:14.333Z,9.10
2019-06-07T05:51:45.014Z,11.65
2019-06-07T05:54:14.871Z,11.95
2019-06-07T05:56:45.347Z,11.68
2019-06-07T05:59:14.751Z,13.98
2019-06-07T06:01:53.480Z,10.85
2019-06-07T06:04:14.974Z,11.18
2019-06-07T06:06:47.112Z,10.15
2019-06-07T06:09:14.831Z,13.18
2019-06-07T06:11:58.641Z,11.50
2019-06-07T06:14:14.854Z,14.35
2019-06-07T06:16:47.047Z,11.60
2019-06-07T06:19:14.778Z,10.32
2019-06-07T06:21:46.116Z,14.13
2019-06-07T06:24:14.683Z,10.10
2019-06-07T06:26:50.511Z,9.78
2019-06-07T06:29:14.511Z,9.10
2019-06-07T06:32:35.502Z,11.22
2019-06-07T06:34:14.426Z,11.60
2019-06-07T06:36:47.100Z,11.22
2019-06-07T06:39:14.706Z,9.45
2019-06-07T06:41:58.452Z,10.82
2019-06-07T06:44:14.555Z,12.58
2019-06-07T06:46:49.112Z,11.53
2019-06-07T06:49:14.449Z,10.32
2019-06-07T06:51:50.062Z,9.40
2019-06-07T06:54:14.519Z,12.88
2019-06-07T06:56:45.607Z,10.13
2019-06-07T06:59:37.545Z,12.85
2019-06-07T07:01:49.437Z,13.72
2019-06-07T07:04:17.272Z,12.35
2019-06-07T07:06:48.019Z,10.50
2019-06-07T07:09:17.529Z,9.90
2019-06-07T07:12:08.849Z,11.97
2019-06-07T07:14:17.258Z,10.80
2019-06-07T07:16:50.019Z,11.28
2019-06-07T07:19:17.091Z,9.33
2019-06-07T07:21:50.621Z,10.18
2019-06-07T07:24:21.709Z,9.70
2019-06-07T07:26:50.443Z,9.33
2019-06-07T07:29:18.767Z,11.22
2019-06-07T07:31:50.812Z,9.80
2019-06-07T07:34:33.418Z,10.95
2019-06-07T07:36:52.961Z,11.10
2019-06-07T07:39:20.312Z,9.20
2019-06-07T07:42:15.271Z,13.83
2019-06-07T07:44:20.187Z,9.18
2019-06-07T07:46:51.167Z,10.18
2019-06-07T07:49:19.375Z,11.28
2019-06-07T07:51:49.055Z,11.18
2019-06-07T07:54:19.307Z,9.53
2019-06-07T07:56:49.073Z,10.23
2019-06-07T07:59:18.962Z,7.33
2019-06-07T08:01:48.616Z,9.03
2019-06-07T08:04:24.375Z,8.88
2019-06-07T08:06:51.563Z,6.97
2019-06-07T08:09:20.468Z,9.18
2019-06-07T08:11:51.953Z,9.28
2019-06-07T08:14:20.374Z,9.25
2019-06-07T08:16:49.548Z,7.15
2019-06-07T08:19:18.632Z,8.75
2019-06-07T08:21:48.953Z,10.40
2019-06-07T08:24:18.506Z,7.72
2019-06-07T08:27:12.402Z,10.82
2019-06-07T08:29:18.243Z,9.60
2019-06-07T08:31:48.302Z,8.33
2019-06-07T08:34:17.557Z,7.40
2019-06-07T08:36:46.531Z,8.13
2019-06-07T08:39:15.605Z,6.60
2019-06-07T08:41:59.261Z,6.45
2019-06-07T08:44:23.153Z,8.60
2019-06-07T08:46:46.166Z,7.97
2019-06-07T08:49:15.388Z,7.03
2019-06-07T08:51:44.479Z,7.10
2019-06-07T08:54:22.319Z,6.53
2019-06-07T08:56:44.427Z,7.33
2019-06-07T08:59:13.571Z,6.58
2019-06-07T09:01:42.730Z,9.55
2019-06-07T09:04:11.780Z,9.83
2019-06-07T09:07:02.280Z,6.55
2019-06-07T09:09:11.637Z,6.62
2019-06-07T09:11:40.811Z,6.12
2019-06-07T09:14:09.959Z,5.67
2019-06-07T09:16:39.127Z,7.95
2019-06-07T09:19:11.104Z,8.28
2019-06-07T09:21:39.134Z,6.22
2019-06-07T09:24:11.194Z,7.47
2019-06-07T09:26:39.018Z,11.95
2019-06-07T09:29:11.638Z,10.53
2019-06-07T09:31:51.740Z,7.22
2019-06-07T09:34:13.930Z,7.45
2019-06-07T09:36:40.869Z,6.47
2019-06-07T09:39:12.454Z,8.53
2019-06-07T09:41:49.625Z,8.60
2019-06-07T09:44:23.859Z,8.25
2019-06-07T09:46:42.297Z,7.97
2019-06-07T09:49:27.719Z,8.25
2019-06-07T09:51:42.308Z,13.15
2019-06-07T09:54:42.174Z,11.85
2019-06-07T09:56:42.467Z,10.38
2019-06-07T09:59:12.940Z,9.15
2019-06-07T10:01:42.298Z,10.50
2019-06-07T10:04:28.202Z,9.10
2019-06-07T10:06:42.196Z,12.07
2019-06-07T10:10:08.608Z,9.50
2019-06-07T10:11:42.133Z,10.38
2019-06-07T10:14:11.339Z,11.45
2019-06-07T10:16:46.909Z,11.30
2019-06-07T10:19:11.206Z,14.98
2019-06-07T10:21:40.373Z,10.20
2019-06-07T10:24:09.758Z,10.65
2019-06-07T10:26:38.894Z,11.57
2019-06-07T10:29:09.077Z,12.18
2019-06-07T10:31:38.858Z,10.10
2019-06-07T10:34:08.479Z,12.58
2019-06-07T10:36:37.888Z,10.88
2019-06-07T10:39:09.075Z,9.65
2019-06-07T10:41:38.448Z,12.05
2019-06-07T10:44:07.627Z,13.35
2019-06-07T10:46:36.831Z,12.18
2019-06-07T10:49:06.211Z,12.50
2019-06-07T10:51:35.248Z,10.48
2019-06-07T10:54:11.107Z,11.43
2019-06-07T10:56:35.270Z,12.90
2019-06-07T10:59:05.199Z,11.48
2019-06-07T11:01:34.812Z,12.03
2019-06-07T11:04:05.613Z,11.38
2019-06-07T11:06:35.251Z,9.38
2019-06-07T11:09:06.148Z,10.68
2019-06-07T11:11:35.210Z,11.35
2019-06-07T11:14:06.450Z,12.45
2019-06-07T11:16:35.731Z,13.70
2019-06-07T11:19:06.046Z,9.75
2019-06-07T11:21:35.262Z,12.73
2019-06-07T11:24:04.430Z,9.40
2019-06-07T11:26:33.533Z,12.82
2019-06-07T11:29:02.618Z,10.93
2019-06-07T11:31:31.610Z,8.45
2019-06-07T11:34:19.833Z,8.85
2019-06-07T11:36:51.057Z,11.73
2019-06-07T11:39:19.707Z,7.90
2019-06-07T11:41:48.802Z,8.88
2019-06-07T11:44:17.846Z,11.63
2019-06-07T11:46:46.838Z,11.33
2019-06-07T11:49:20.348Z,9.63
2019-06-07T11:51:46.670Z,10.13
2019-06-07T11:54:16.241Z,9.58
2019-06-07T11:56:45.407Z,9.93
2019-06-07T11:59:15.337Z,13.25
2019-06-07T12:01:44.625Z,8.93
2019-06-07T12:04:15.349Z,11.60
2019-06-07T12:06:44.547Z,8.28
2019-06-07T12:09:14.546Z,11.57
2019-06-07T12:11:43.964Z,8.85
2019-06-07T12:14:13.134Z,9.38
2019-06-07T12:16:42.233Z,10.68
2019-06-07T12:19:11.881Z,11.38
2019-06-07T12:21:41.169Z,8.73
2019-06-07T12:24:10.474Z,9.03
2019-06-07T12:26:39.660Z,10.23
2019-06-07T12:29:08.827Z,13.65
2019-06-07T12:31:37.890Z,12.00
2019-06-07T12:34:07.027Z,8.43
2019-06-07T12:36:36.067Z,7.33
2019-06-07T12:39:07.345Z,6.83
2019-06-07T12:41:36.489Z,14.18
2019-06-07T12:44:06.060Z,11.43
2019-06-07T12:46:35.164Z,9.35
2019-06-07T12:49:04.604Z,8.25
2019-06-07T12:51:33.563Z,7.53
2019-06-07T12:54:02.661Z,8.13
2019-06-07T12:56:31.811Z,8.68
2019-06-07T12:59:00.886Z,12.15
2019-06-07T13:01:29.927Z,10.03
2019-06-07T13:03:59.016Z,8.23
2019-06-07T13:06:28.089Z,11.35
2019-06-07T13:08:57.215Z,8.13
2019-06-07T13:11:30.157Z,7.03
2019-06-07T13:13:57.199Z,7.97
2019-06-07T13:16:26.363Z,7.70
2019-06-07T13:18:55.722Z,7.30
2019-06-07T13:21:24.801Z,6.92
2019-06-07T13:23:53.904Z,9.55
2019-06-07T13:26:23.800Z,7.15
2019-06-07T13:28:53.883Z,8.73
2019-06-07T13:31:23.403Z,7.03
2019-06-07T13:33:52.762Z,7.62
2019-06-07T13:36:22.378Z,8.80
2019-06-07T13:38:51.592Z,7.33
2019-06-07T13:41:32.763Z,7.05
2019-06-07T13:43:51.815Z,6.72
2019-06-07T13:46:21.085Z,7.35
2019-06-07T13:48:50.218Z,6.83
2019-06-07T13:51:21.133Z,4.92
2019-06-07T13:53:49.990Z,7.33
2019-06-07T13:56:19.827Z,7.53
2019-06-07T13:58:49.079Z,6.17
2019-06-07T14:01:18.343Z,7.95
2019-06-07T14:03:47.411Z,7.42
2019-06-07T14:06:16.527Z,5.75
2019-06-07T14:08:45.618Z,5.78
2019-06-07T14:11:14.696Z,5.40
2019-06-07T14:13:43.912Z,7.53
2019-06-07T14:16:14.860Z,6.75
2019-06-07T14:18:44.199Z,5.45
2019-06-07T14:21:13.209Z,8.03
2019-06-07T14:23:48.684Z,7.17
2019-06-07T14:26:13.051Z,5.87
2019-06-07T14:28:42.124Z,6.30
2019-06-07T14:31:11.216Z,5.30
2019-06-07T14:33:40.349Z,6.55
2019-06-07T14:36:10.507Z,6.00
2019-06-07T14:38:39.666Z,7.62
2019-06-07T14:41:08.667Z,5.40
2019-06-07T14:43:37.640Z,5.10
2019-06-07T14:46:06.772Z,5.60
2019-06-07T14:48:35.829Z,4.85
2019-06-07T14:51:04.859Z,7.78
2019-06-07T14:53:35.109Z,5.97
2019-06-07T14:56:04.522Z,4.87
2019-06-07T14:58:41.106Z,6.40
2019-06-07T15:01:04.506Z,4.95
2019-06-07T15:03:34.812Z,6.20
2019-06-07T15:06:04.204Z,6.30
2019-06-07T15:08:34.789Z,6.72
2019-06-07T15:11:04.152Z,7.15
2019-06-07T15:13:33.587Z,7.53
2019-06-07T15:16:02.972Z,6.90
2019-06-07T15:18:32.170Z,6.95
2019-06-07T15:21:01.278Z,6.87
2019-06-07T15:23:31.134Z,7.10
2019-06-07T15:26:00.428Z,8.50
2019-06-07T15:28:30.157Z,7.78
2019-06-07T15:30:59.361Z,7.60
2019-06-07T15:33:29.632Z,9.18
2019-06-07T15:35:59.198Z,9.05
2019-06-07T15:38:29.001Z,8.50
2019-06-07T15:40:58.444Z,9.50
2019-06-07T15:43:29.300Z,6.83
2019-06-07T15:45:58.230Z,7.08
2019-06-07T15:48:27.227Z,6.53
2019-06-07T15:50:56.269Z,5.53
2019-06-07T15:53:25.349Z,5.05
2019-06-07T15:55:54.487Z,5.62
2019-06-07T15:58:23.564Z,4.62
2019-06-07T16:00:52.707Z,5.22
2019-06-07T16:03:21.904Z,7.67
2019-06-07T16:05:51.222Z,9.23
2019-06-07T16:08:20.658Z,9.63
2019-06-07T16:10:49.711Z,10.10
2019-06-07T16:13:18.824Z,13.80
2019-06-07T16:15:47.845Z,11.50
2019-06-07T16:18:16.976Z,9.53
2019-06-07T16:20:45.992Z,9.68
2019-06-07T16:23:15.074Z,8.25
2019-06-07T16:25:44.372Z,4.92
2019-06-07T16:28:13.572Z,6.47
2019-06-07T16:30:42.762Z,4.87
2019-06-07T16:33:11.946Z,5.62
2019-06-07T16:35:41.150Z,3.08
2019-06-07T16:38:10.287Z,5.78
2019-06-07T16:40:40.347Z,4.67
2019-06-07T16:43:18.427Z,3.00
2019-06-07T16:45:40.820Z,4.62
2019-06-07T16:48:10.392Z,2.83
2019-06-07T16:50:40.824Z,5.72
2019-06-07T16:53:10.287Z,3.25
2019-06-07T16:55:40.499Z,6.15
2019-06-07T16:58:10.079Z,4.37
2019-06-07T17:00:40.546Z,3.77
2019-06-07T17:03:09.928Z,4.00
2019-06-07T17:05:39.838Z,3.35
2019-06-07T17:08:09.972Z,3.77
2019-06-07T17:10:40.136Z,4.45
2019-06-07T17:13:09.658Z,4.90
2019-06-07T17:15:38.730Z,6.22
2019-06-07T17:18:08.167Z,5.37
2019-06-07T17:20:37.313Z,6.55
2019-06-07T17:23:06.506Z,4.90
2019-06-07T17:25:35.629Z,6.65
2019-06-07T17:28:05.055Z,3.58
2019-06-07T17:30:34.206Z,4.83
2019-06-07T17:33:03.335Z,3.05
2019-06-07T17:35:32.478Z,3.08
2019-06-07T17:38:01.646Z,5.95
2019-06-07T17:40:30.841Z,4.45
2019-06-07T17:43:00.052Z,2.55
2019-06-07T17:45:29.199Z,3.27
2019-06-07T17:47:58.374Z,2.62
2019-06-07T17:50:27.791Z,1.82
2019-06-07T17:52:56.927Z,2.70
2019-06-07T17:55:26.072Z,1.65
2019-06-07T17:57:55.330Z,1.95
2019-06-07T18:00:28.757Z,1.00
2019-06-07T18:02:57.188Z,1.15
2019-06-07T18:05:26.258Z,1.85
2019-06-07T18:07:57.011Z,5.12
2019-06-07T18:10:37.329Z,1.47
2019-06-07T18:13:07.343Z,2.40
2019-06-07T18:15:42.181Z,2.15
2019-06-07T18:18:11.875Z,1.80
2019-06-07T18:20:41.710Z,1.90
2019-06-07T18:23:10.912Z,2.90
2019-06-07T18:25:40.008Z,1.00
2019-06-07T18:28:10.008Z,1.37
2019-06-07T18:30:39.178Z,2.05
2019-06-07T18:33:08.275Z,1.17
2019-06-07T18:35:37.340Z,1.77
2019-06-07T18:38:06.427Z,2.02
2019-06-07T18:40:35.692Z,0.75
2019-06-07T18:43:05.071Z,0.80
2019-06-07T18:45:34.146Z,0.72
2019-06-07T18:48:03.291Z,0.53
2019-06-07T18:50:32.347Z,1.12
2019-06-07T18:53:01.411Z,0.78
2019-06-07T18:55:30.792Z,1.12
2019-06-07T18:57:59.852Z,1.20
2019-06-07T19:00:29.591Z,0.80
2019-06-07T19:02:58.623Z,0.50
2019-06-07T19:05:27.730Z,1.25
2019-06-07T19:07:56.819Z,0.75
2019-06-07T19:10:26.455Z,3.35
2019-06-07T19:12:55.534Z,2.12
2019-06-07T19:15:25.315Z,1.10
2019-06-07T19:17:55.910Z,1.05
2019-06-07T19:20:26.676Z,1.52
2019-06-07T19:22:56.477Z,0.90
2019-06-07T19:25:25.863Z,0.72
2019-06-07T19:27:55.119Z,0.37
2019-06-07T19:30:24.327Z,1.12
2019-06-07T19:32:55.366Z,0.68
2019-06-07T19:35:24.499Z,0.65
2019-06-07T19:37:53.819Z,0.50
2019-06-07T19:40:23.469Z,0.65
2019-06-07T19:42:52.556Z,0.95
2019-06-07T19:45:30.332Z,1.07
2019-06-07T19:47:52.540Z,0.88
2019-06-07T19:50:21.724Z,1.57
2019-06-07T19:52:50.812Z,1.10
2019-06-07T19:55:19.918Z,1.10
2019-06-07T19:57:50.171Z,1.00
2019-06-07T20:00:20.057Z,0.55
2019-06-07T20:02:49.047Z,0.80
2019-06-07T20:05:18.285Z,1.95
2019-06-07T20:07:47.338Z,0.80
2019-06-07T20:10:16.533Z,0.55
2019-06-07T20:12:45.611Z,1.70
2019-06-07T20:15:28.014Z,1.22
2019-06-07T20:17:45.754Z,1.05
2019-06-07T20:20:14.833Z,2.08
2019-06-07T20:22:43.962Z,0.40
2019-06-07T20:25:13.462Z,0.45
2019-06-07T20:27:42.618Z,1.92
2019-06-07T20:30:12.309Z,0.85
2019-06-07T20:32:41.464Z,2.15
2019-06-07T20:35:10.904Z,1.10
2019-06-07T20:37:39.998Z,1.25
2019-06-07T20:40:23.723Z,1.98
2019-06-07T20:42:41.422Z,0.82
2019-06-07T20:45:10.893Z,0.60
2019-06-07T20:47:40.429Z,0.80
2019-06-07T20:50:09.831Z,1.70
2019-06-07T20:52:39.315Z,0.53
2019-06-07T20:55:10.015Z,0.95
2019-06-07T20:57:39.088Z,1.02
2019-06-07T21:00:20.729Z,2.75
2019-06-07T21:02:41.494Z,0.68
2019-06-07T21:05:10.724Z,0.47
2019-06-07T21:07:39.805Z,0.50
2019-06-07T21:10:10.669Z,1.05
2019-06-07T21:12:40.174Z,0.62
2019-06-07T21:15:12.724Z,3.77
2019-06-07T21:17:40.565Z,2.08
2019-06-07T21:20:14.386Z,0.40
2019-06-07T21:22:43.047Z,1.15
2019-06-07T21:25:12.547Z,0.53
2019-06-07T21:27:41.543Z,1.98
2019-06-07T21:30:11.790Z,3.83
2019-06-07T21:32:41.217Z,1.02
2019-06-07T21:35:12.158Z,1.62
2019-06-07T21:37:41.670Z,0.72
2019-06-07T21:40:12.176Z,2.05
2019-06-07T21:42:41.421Z,0.82
2019-06-07T21:45:11.855Z,1.42
2019-06-07T21:47:41.062Z,1.75
2019-06-07T21:50:10.750Z,1.92
2019-06-07T21:52:40.905Z,2.02
2019-06-07T21:55:11.471Z,1.37
2019-06-07T21:57:40.982Z,5.78
2019-06-07T22:00:14.349Z,0.50
2019-06-07T22:02:43.427Z,0.57
2019-06-07T22:05:13.758Z,1.47
2019-06-07T22:07:43.079Z,1.70
2019-06-07T22:10:12.580Z,1.15
2019-06-07T22:12:41.978Z,1.67
2019-06-07T22:15:29.172Z,1.02
2019-06-07T22:17:42.302Z,2.05
2019-06-07T22:20:12.828Z,2.25
2019-06-07T22:22:42.125Z,3.60
2019-06-07T22:25:13.005Z,1.52
2019-06-07T22:27:42.191Z,2.77
2019-06-07T22:30:12.526Z,5.65
2019-06-07T22:32:41.852Z,3.62
2019-06-07T22:35:11.236Z,0.78
2019-06-07T22:37:40.290Z,1.05
2019-06-07T22:40:10.736Z,4.92
2019-06-07T22:42:40.043Z,1.62
2019-06-07T22:45:10.924Z,5.87
2019-06-07T22:47:40.267Z,2.87
2019-06-07T22:50:10.916Z,3.45
2019-06-07T22:52:40.708Z,1.10
2019-06-07T22:55:11.942Z,1.98
2019-06-07T22:57:55.915Z,1.25
2019-06-07T23:00:26.009Z,1.45
2019-06-07T23:02:55.175Z,5.75
2019-06-07T23:05:24.276Z,1.25
2019-06-07T23:07:53.348Z,1.30
2019-06-07T23:10:22.435Z,0.78
2019-06-07T23:12:51.483Z,1.17
2019-06-07T23:15:20.935Z,0.72
2019-06-07T23:17:50.233Z,0.70
2019-06-07T23:20:20.342Z,1.20
2019-06-07T23:22:49.473Z,0.53
2019-06-07T23:25:22.406Z,0.78
2019-06-07T23:27:49.379Z,2.60
2019-06-07T23:30:19.059Z,3.70
2019-06-07T23:32:48.034Z,0.47
2019-06-07T23:35:17.486Z,1.30
2019-06-07T23:37:46.774Z,0.82
2019-06-07T23:40:15.773Z,0.70
2019-06-07T23:42:46.334Z,2.98
2019-06-07T23:45:15.579Z,2.00
2019-06-07T23:47:44.927Z,2.00
2019-06-07T23:50:15.694Z,5.55
2019-06-07T23:52:45.010Z,1.17
2019-06-07T23:55:15.782Z,1.27
2019-06-07T23:57:45.221Z,1.12
